createdAt,value
2018-04-10T00:01:15.500Z,10.99
2018-04-10T00:03:43.899Z,11.04
2018-04-10T00:06:12.305Z,10.74
2018-04-10T00:08:40.757Z,10.90
2018-04-10T00:11:09.194Z,10.90
2018-04-10T00:13:37.618Z,10.93
2018-04-10T00:16:06.031Z,10.86
2018-04-10T00:18:34.446Z,10.79
2018-04-10T00:21:02.850Z,10.89
2018-04-10T00:23:31.303Z,10.95
2018-04-10T00:25:59.718Z,10.74
2018-04-10T00:28:28.478Z,10.99
2018-04-10T00:30:56.903Z,10.80
2018-04-10T00:33:25.380Z,10.76
2018-04-10T00:35:53.762Z,10.65
2018-04-10T00:38:22.207Z,10.21
2018-04-10T00:40:50.630Z,10.20
2018-04-10T00:43:19.067Z,10.11
2018-04-10T00:45:47.510Z,9.84
2018-04-10T00:48:15.945Z,10.26
2018-04-10T00:50:44.396Z,10.38
2018-04-10T00:53:36.885Z,10.07
2018-04-10T00:56:05.297Z,10.31
2018-04-10T00:58:33.777Z,9.91
2018-04-10T01:01:02.160Z,9.72
2018-04-10T01:03:30.567Z,9.67
2018-04-10T01:05:58.988Z,9.75
2018-04-10T01:08:27.447Z,9.67
2018-04-10T01:10:55.843Z,9.91
2018-04-10T01:13:24.274Z,9.99
2018-04-10T01:15:52.668Z,10.08
2018-04-10T01:18:21.087Z,9.83
2018-04-10T01:20:49.506Z,9.51
2018-04-10T01:23:18.286Z,9.39
2018-04-10T01:25:46.734Z,9.36
2018-04-10T01:28:15.204Z,9.49
2018-04-10T01:30:43.627Z,9.98
2018-04-10T01:33:12.078Z,10.03
2018-04-10T01:35:40.555Z,9.75
2018-04-10T01:38:08.979Z,9.32
2018-04-10T01:40:37.423Z,9.34
2018-04-10T01:43:05.857Z,9.62
2018-04-10T01:45:34.305Z,9.47
2018-04-10T01:48:02.691Z,9.32
2018-04-10T01:50:31.187Z,9.43
2018-04-10T01:52:59.622Z,9.77
2018-04-10T01:55:28.040Z,9.58
2018-04-10T01:57:56.428Z,9.53
2018-04-10T02:00:24.869Z,9.41
2018-04-10T02:02:53.326Z,9.81
2018-04-10T02:05:21.769Z,9.81
2018-04-10T02:07:50.140Z,9.51
2018-04-10T02:10:18.618Z,9.72
2018-04-10T02:12:47.278Z,9.31
2018-04-10T02:15:15.736Z,9.40
2018-04-10T02:17:44.198Z,9.26
2018-04-10T02:20:12.629Z,9.55
2018-04-10T02:22:41.070Z,9.65
2018-04-10T02:25:09.560Z,9.17
2018-04-10T02:27:37.984Z,9.46
2018-04-10T02:30:06.464Z,9.36
2018-04-10T02:32:34.922Z,9.47
2018-04-10T02:35:03.582Z,9.49
2018-04-10T02:37:32.014Z,9.54
2018-04-10T02:40:00.516Z,9.56
2018-04-10T02:42:28.994Z,9.13
2018-04-10T02:44:57.499Z,9.20
2018-04-10T02:47:25.911Z,9.27
2018-04-10T02:49:54.306Z,9.33
2018-04-10T02:52:22.766Z,9.19
2018-04-10T02:54:51.237Z,9.06
2018-04-10T02:57:19.837Z,9.26
2018-04-10T02:59:48.295Z,9.13
2018-04-10T03:02:16.767Z,9.13
2018-04-10T03:04:45.332Z,9.06
2018-04-10T03:07:13.792Z,8.97
2018-04-10T03:09:42.334Z,8.60
2018-04-10T03:12:10.807Z,8.69
2018-04-10T03:14:39.256Z,9.10
2018-04-10T03:17:07.667Z,9.01
2018-04-10T03:19:36.175Z,8.89
2018-04-10T03:22:04.743Z,8.89
2018-04-10T03:24:33.229Z,8.84
2018-04-10T03:27:01.670Z,8.86
2018-04-10T03:29:30.249Z,8.69
2018-04-10T03:31:58.702Z,8.84
2018-04-10T03:34:27.217Z,8.69
2018-04-10T03:36:55.682Z,8.43
2018-04-10T03:39:24.180Z,8.77
2018-04-10T03:41:52.660Z,8.65
2018-04-10T03:44:21.151Z,8.73
2018-04-10T03:46:49.576Z,8.30
2018-04-10T03:49:18.068Z,8.50
2018-04-10T03:51:46.511Z,8.46
2018-04-10T03:54:14.986Z,8.66
2018-04-10T03:56:43.420Z,8.56
2018-04-10T03:59:11.831Z,8.87
2018-04-10T04:01:40.283Z,8.70
2018-04-10T04:04:08.713Z,8.58
2018-04-10T04:06:37.122Z,8.58
2018-04-10T04:09:05.625Z,8.70
2018-04-10T04:11:34.095Z,8.72
2018-04-10T04:14:02.580Z,8.77
2018-04-10T04:16:43.019Z,8.77
2018-04-10T04:19:23.392Z,8.75
2018-04-10T04:22:04.113Z,8.59
2018-04-10T04:24:32.562Z,8.45
2018-04-10T04:27:00.942Z,8.67
2018-04-10T04:29:29.496Z,8.87
2018-04-10T04:31:57.926Z,9.04
2018-04-10T04:34:26.361Z,9.11
2018-04-10T04:36:54.793Z,9.34
2018-04-10T04:39:23.191Z,8.75
2018-04-10T04:41:51.659Z,8.98
2018-04-10T04:44:20.104Z,9.11
2018-04-10T04:46:48.555Z,9.33
2018-04-10T04:49:17.013Z,9.58
2018-04-10T04:51:45.387Z,9.92
2018-04-10T04:54:13.871Z,9.95
2018-04-10T04:56:42.293Z,10.17
2018-04-10T04:59:10.790Z,10.23
2018-04-10T05:01:39.176Z,10.25
2018-04-10T05:04:07.564Z,10.32
2018-04-10T05:06:36.060Z,10.43
2018-04-10T05:09:07.477Z,10.41
2018-04-10T05:11:35.927Z,10.51
2018-04-10T05:14:04.382Z,10.50
2018-04-10T05:16:32.809Z,10.76
2018-04-10T05:19:01.539Z,10.35
2018-04-10T05:21:29.985Z,10.37
2018-04-10T05:23:58.447Z,10.74
2018-04-10T05:26:26.892Z,10.83
2018-04-10T05:28:55.326Z,11.01
2018-04-10T05:31:23.727Z,10.95
2018-04-10T05:33:52.165Z,11.10
2018-04-10T05:36:20.619Z,11.20
2018-04-10T05:38:49.103Z,11.25
2018-04-10T05:41:17.794Z,11.27
2018-04-10T05:43:46.312Z,11.50
2018-04-10T05:46:14.711Z,11.74
2018-04-10T05:48:43.163Z,11.97
2018-04-10T05:51:11.543Z,12.13
2018-04-10T05:53:39.996Z,12.40
2018-04-10T05:56:08.404Z,12.43
2018-04-10T05:58:36.845Z,12.52
2018-04-10T06:01:05.294Z,12.94
2018-04-10T06:03:33.719Z,12.87
2018-04-10T06:06:02.184Z,12.51
2018-04-10T06:08:30.632Z,12.77
2018-04-10T06:10:59.044Z,13.01
2018-04-10T06:13:27.478Z,13.02
2018-04-10T06:15:55.875Z,13.45
2018-04-10T06:18:24.330Z,13.92
2018-04-10T06:20:52.796Z,14.24
2018-04-10T06:23:21.256Z,14.07
2018-04-10T06:25:49.881Z,13.99
2018-04-10T06:28:18.351Z,14.04
2018-04-10T06:30:46.723Z,14.61
2018-04-10T06:33:15.124Z,14.53
2018-04-10T06:35:43.559Z,14.58
2018-04-10T06:38:12.002Z,14.61
2018-04-10T06:40:43.694Z,15.05
2018-04-10T06:43:12.146Z,15.33
2018-04-10T06:45:40.583Z,15.35
2018-04-10T06:48:09.052Z,15.63
2018-04-10T06:50:37.462Z,15.75
2018-04-10T06:53:05.930Z,15.88
2018-04-10T06:55:34.398Z,16.17
2018-04-10T06:58:02.795Z,16.19
2018-04-10T07:00:31.246Z,16.31
2018-04-10T07:02:59.739Z,16.04
2018-04-10T07:05:28.187Z,15.84
2018-04-10T07:07:56.660Z,15.96
2018-04-10T07:10:25.462Z,16.44
2018-04-10T07:12:54.274Z,16.06
2018-04-10T07:15:22.743Z,16.19
2018-04-10T07:17:51.196Z,16.43
2018-04-10T07:20:19.671Z,16.67
2018-04-10T07:22:48.080Z,17.06
2018-04-10T07:25:16.534Z,17.53
2018-04-10T07:27:44.994Z,17.49
2018-04-10T07:30:13.631Z,17.51
2018-04-10T07:32:42.354Z,17.17
2018-04-10T07:35:10.889Z,17.14
2018-04-10T07:37:39.312Z,17.11
2018-04-10T07:40:07.843Z,17.29
2018-04-10T07:42:36.238Z,17.45
2018-04-10T07:45:04.731Z,17.69
2018-04-10T07:47:33.555Z,17.90
2018-04-10T07:50:01.975Z,18.26
2018-04-10T07:52:30.385Z,17.95
2018-04-10T07:54:59.265Z,18.33
2018-04-10T07:57:27.727Z,18.33
2018-04-10T07:59:56.248Z,17.77
2018-04-10T08:02:25.056Z,17.68
2018-04-10T08:04:53.510Z,18.03
2018-04-10T08:07:21.931Z,18.32
2018-04-10T08:09:50.625Z,18.43
2018-04-10T08:12:19.054Z,18.76
2018-04-10T08:14:47.517Z,19.05
2018-04-10T08:17:16.176Z,18.95
2018-04-10T08:19:44.566Z,19.14
2018-04-10T08:22:13.024Z,19.44
2018-04-10T08:24:41.499Z,19.57
2018-04-10T08:27:09.971Z,19.23
2018-04-10T08:29:38.395Z,18.71
2018-04-10T08:32:06.839Z,19.24
2018-04-10T08:34:35.299Z,19.28
2018-04-10T08:37:03.726Z,19.42
2018-04-10T08:39:32.152Z,19.82
2018-04-10T08:42:00.762Z,20.18
2018-04-10T08:44:29.167Z,20.03
2018-04-10T08:46:57.580Z,19.74
2018-04-10T08:49:25.968Z,20.28
2018-04-10T08:51:54.359Z,20.77
2018-04-10T08:54:22.796Z,21.07
2018-04-10T08:56:51.259Z,21.05
2018-04-10T08:59:19.667Z,21.16
2018-04-10T09:01:48.119Z,21.44
2018-04-10T09:04:16.527Z,21.62
2018-04-10T09:06:44.951Z,21.55
2018-04-10T09:09:13.415Z,21.70
2018-04-10T09:11:42.049Z,21.68
2018-04-10T09:14:10.596Z,21.86
2018-04-10T09:16:39.044Z,21.33
2018-04-10T09:19:07.520Z,20.98
2018-04-10T09:21:35.972Z,21.57
2018-04-10T09:24:04.416Z,21.06
2018-04-10T09:26:32.850Z,20.88
2018-04-10T09:29:01.251Z,21.32
2018-04-10T09:31:29.691Z,21.27
2018-04-10T09:33:58.095Z,21.60
2018-04-10T09:36:26.527Z,21.03
2018-04-10T09:38:55.063Z,20.87
2018-04-10T09:41:23.553Z,20.94
2018-04-10T09:43:51.936Z,20.80
2018-04-10T09:46:20.365Z,20.70
2018-04-10T09:48:48.799Z,21.27
2018-04-10T09:51:17.443Z,21.93
2018-04-10T09:53:45.907Z,22.52
2018-04-10T09:56:14.362Z,22.63
2018-04-10T09:58:42.867Z,22.87
2018-04-10T10:01:11.298Z,23.42
2018-04-10T10:03:39.723Z,23.06
2018-04-10T10:06:08.131Z,22.45
2018-04-10T10:08:36.621Z,22.12
2018-04-10T10:11:05.167Z,22.59
2018-04-10T10:13:33.691Z,22.97
2018-04-10T10:16:02.151Z,23.38
2018-04-10T10:18:30.564Z,24.13
2018-04-10T10:20:59.048Z,24.57
2018-04-10T10:23:27.481Z,25.33
2018-04-10T10:25:55.955Z,25.17
2018-04-10T10:28:24.335Z,25.36
2018-04-10T10:30:52.734Z,25.65
2018-04-10T10:33:21.155Z,25.90
2018-04-10T10:35:49.579Z,26.08
2018-04-10T10:38:18.023Z,24.90
2018-04-10T10:40:46.442Z,24.35
2018-04-10T10:43:14.927Z,24.79
2018-04-10T10:45:43.363Z,25.03
2018-04-10T10:48:11.800Z,25.11
2018-04-10T10:50:40.239Z,25.65
2018-04-10T10:53:08.717Z,26.33
2018-04-10T10:55:37.199Z,26.77
2018-04-10T10:58:05.773Z,26.83
2018-04-10T11:00:34.214Z,26.36
2018-04-10T11:03:03.016Z,26.65
2018-04-10T11:05:31.474Z,26.25
2018-04-10T11:07:59.900Z,26.36
2018-04-10T11:10:28.313Z,26.44
2018-04-10T11:12:56.771Z,26.91
2018-04-10T11:15:25.215Z,27.38
2018-04-10T11:17:53.635Z,27.53
2018-04-10T11:20:22.114Z,27.95
2018-04-10T11:22:50.498Z,27.78
2018-04-10T11:25:18.887Z,27.54
2018-04-10T11:27:47.348Z,28.67
2018-04-10T11:30:15.775Z,29.24
2018-04-10T11:32:44.188Z,29.57
2018-04-10T11:35:12.656Z,29.22
2018-04-10T11:37:41.105Z,30.13
2018-04-10T11:40:09.640Z,29.97
2018-04-10T11:42:38.062Z,30.17
2018-04-10T11:45:06.552Z,29.64
2018-04-10T11:47:34.995Z,28.63
2018-04-10T11:50:03.497Z,28.52
2018-04-10T11:52:31.941Z,27.09
2018-04-10T11:55:00.393Z,26.92
2018-04-10T11:57:28.886Z,27.04
2018-04-10T11:59:57.353Z,28.06
2018-04-10T12:02:26.007Z,29.57
2018-04-10T12:04:54.455Z,30.10
2018-04-10T12:07:22.903Z,30.18
2018-04-10T12:09:51.296Z,30.89
2018-04-10T12:12:19.790Z,31.12
2018-04-10T12:14:48.175Z,31.72
2018-04-10T12:17:16.963Z,31.28
2018-04-10T12:19:45.434Z,31.58
2018-04-10T12:22:13.931Z,32.18
2018-04-10T12:24:42.691Z,32.83
2018-04-10T12:27:11.144Z,33.12
2018-04-10T12:29:39.616Z,32.31
2018-04-10T12:32:08.062Z,31.80
2018-04-10T12:34:36.492Z,31.55
2018-04-10T12:37:04.972Z,31.81
2018-04-10T12:39:33.393Z,32.54
2018-04-10T12:42:01.790Z,33.12
2018-04-10T12:44:30.251Z,33.05
2018-04-10T12:46:58.670Z,33.51
2018-04-10T12:49:27.059Z,34.29
2018-04-10T12:51:55.502Z,34.01
2018-04-10T12:54:23.930Z,33.31
2018-04-10T12:56:52.371Z,33.13
2018-04-10T12:59:20.825Z,33.37
2018-04-10T13:01:49.216Z,34.14
2018-04-10T13:04:17.662Z,34.63
2018-04-10T13:06:46.110Z,34.37
2018-04-10T13:09:14.524Z,34.84
2018-04-10T13:11:42.987Z,35.98
2018-04-10T13:14:11.412Z,34.67
2018-04-10T13:16:40.170Z,35.70
2018-04-10T13:19:08.573Z,36.10
2018-04-10T13:21:37.256Z,35.68
2018-04-10T13:24:06.118Z,36.49
2018-04-10T13:26:34.627Z,36.82
2018-04-10T13:29:03.057Z,36.94
2018-04-10T13:31:31.870Z,37.51
2018-04-10T13:34:00.258Z,38.12
2018-04-10T13:36:28.731Z,38.31
2018-04-10T13:38:57.862Z,38.51
2018-04-10T13:41:26.289Z,38.75
2018-04-10T13:43:54.730Z,37.99
2018-04-10T13:46:23.837Z,37.06
2018-04-10T13:48:52.267Z,37.92
2018-04-10T13:51:20.667Z,37.83
2018-04-10T13:53:50.196Z,38.22
2018-04-10T13:56:18.613Z,36.38
2018-04-10T13:58:47.072Z,36.87
2018-04-10T14:01:15.799Z,36.90
2018-04-10T14:03:44.365Z,36.77
2018-04-10T14:06:12.775Z,33.00
2018-04-10T14:08:41.415Z,28.90
2018-04-10T14:11:09.965Z,28.03
2018-04-10T14:13:38.434Z,29.29
2018-04-10T14:16:06.850Z,29.22
2018-04-10T14:18:35.268Z,28.76
2018-04-10T14:21:03.790Z,31.02
2018-04-10T14:23:32.322Z,32.68
2018-04-10T14:26:00.798Z,32.73
2018-04-10T14:28:29.247Z,32.15
2018-04-10T14:30:58.829Z,32.97
2018-04-10T14:33:27.283Z,32.37
2018-04-10T14:35:55.710Z,31.28
2018-04-10T14:38:24.568Z,30.82
2018-04-10T14:40:52.992Z,28.96
2018-04-10T14:43:21.408Z,28.43
2018-04-10T14:45:49.930Z,27.96
2018-04-10T14:48:18.339Z,27.21
2018-04-10T14:50:46.809Z,27.21
2018-04-10T14:53:15.253Z,27.80
2018-04-10T14:55:43.777Z,27.45
2018-04-10T14:58:12.222Z,26.71
2018-04-10T15:00:40.671Z,26.04
2018-04-10T15:03:09.080Z,26.15
2018-04-10T15:05:37.560Z,25.97
2018-04-10T15:08:06.003Z,26.09
2018-04-10T15:10:34.470Z,26.02
2018-04-10T15:13:02.947Z,26.88
2018-04-10T15:15:31.498Z,27.16
2018-04-10T15:17:59.908Z,26.88
2018-04-10T15:20:28.387Z,26.71
2018-04-10T15:22:56.840Z,25.99
2018-04-10T15:25:25.333Z,25.40
2018-04-10T15:27:53.821Z,26.02
2018-04-10T15:30:22.253Z,25.66
2018-04-10T15:32:50.705Z,25.62
2018-04-10T15:35:19.116Z,25.76
2018-04-10T15:37:47.589Z,25.81
2018-04-10T15:40:16.046Z,25.49
2018-04-10T15:42:45.671Z,25.27
2018-04-10T15:45:14.134Z,25.43
2018-04-10T15:47:42.611Z,25.61
2018-04-10T15:50:11.040Z,25.64
2018-04-10T15:52:39.547Z,25.46
2018-04-10T15:55:07.968Z,24.84
2018-04-10T15:57:36.595Z,24.94
2018-04-10T16:00:05.124Z,24.40
2018-04-10T16:02:33.518Z,24.48
2018-04-10T16:05:01.914Z,23.78
2018-04-10T16:07:30.363Z,23.81
2018-04-10T16:09:58.764Z,24.05
2018-04-10T16:12:27.290Z,24.01
2018-04-10T16:14:55.714Z,24.17
2018-04-10T16:17:24.149Z,23.78
2018-04-10T16:19:52.541Z,23.46
2018-04-10T16:22:20.987Z,23.38
2018-04-10T16:24:49.425Z,23.30
2018-04-10T16:27:17.847Z,23.65
2018-04-10T16:29:46.330Z,23.52
2018-04-10T16:32:14.772Z,23.07
2018-04-10T16:34:43.178Z,23.03
2018-04-10T16:37:11.647Z,22.80
2018-04-10T16:39:40.076Z,22.96
2018-04-10T16:42:08.616Z,22.77
2018-04-10T16:44:37.799Z,22.56
2018-04-10T16:47:06.202Z,22.11
2018-04-10T16:49:34.665Z,21.88
2018-04-10T16:52:03.077Z,21.74
2018-04-10T16:54:31.514Z,22.13
2018-04-10T16:56:59.993Z,22.19
2018-04-10T16:59:28.415Z,22.16
2018-04-10T17:01:56.888Z,21.99
2018-04-10T17:04:25.302Z,21.69
2018-04-10T17:06:53.768Z,21.53
2018-04-10T17:09:22.164Z,21.51
2018-04-10T17:11:50.566Z,21.40
2018-04-10T17:14:19.039Z,21.02
2018-04-10T17:16:47.501Z,20.98
2018-04-10T17:19:15.919Z,20.90
2018-04-10T17:21:44.371Z,20.95
2018-04-10T17:24:12.847Z,20.90
2018-04-10T17:26:41.255Z,20.64
2018-04-10T17:29:09.739Z,20.65
2018-04-10T17:31:38.154Z,20.68
2018-04-10T17:34:06.613Z,20.99
2018-04-10T17:36:35.089Z,20.80
2018-04-10T17:39:03.899Z,20.92
2018-04-10T17:41:32.394Z,20.79
2018-04-10T17:44:00.775Z,21.03
2018-04-10T17:46:29.888Z,20.98
2018-04-10T17:48:58.334Z,20.87
2018-04-10T17:51:26.714Z,20.85
2018-04-10T17:53:55.192Z,20.67
2018-04-10T17:56:23.626Z,20.52
2018-04-10T17:58:52.138Z,20.36
2018-04-10T18:01:20.561Z,19.99
2018-04-10T18:03:48.952Z,20.13
2018-04-10T18:06:17.381Z,20.05
2018-04-10T18:08:45.827Z,19.63
2018-04-10T18:11:14.232Z,20.00
2018-04-10T18:13:42.710Z,19.72
2018-04-10T18:16:11.209Z,19.56
2018-04-10T18:18:39.614Z,19.66
2018-04-10T18:21:08.122Z,19.76
2018-04-10T18:23:36.663Z,19.89
2018-04-10T18:26:05.240Z,19.92
2018-04-10T18:28:33.670Z,19.96
2018-04-10T18:31:02.078Z,19.87
2018-04-10T18:33:30.483Z,19.75
2018-04-10T18:35:59.049Z,19.77
2018-04-10T18:38:27.478Z,19.65
2018-04-10T18:40:55.925Z,19.44
2018-04-10T18:43:24.332Z,19.41
2018-04-10T18:45:52.827Z,19.28
2018-04-10T18:48:21.218Z,19.23
2018-04-10T18:50:49.598Z,19.20
2018-04-10T18:53:18.022Z,19.17
2018-04-10T18:55:46.459Z,18.96
2018-04-10T18:58:14.922Z,18.57
2018-04-10T19:00:43.413Z,18.83
2018-04-10T19:03:11.807Z,18.54
2018-04-10T19:05:40.271Z,18.96
2018-04-10T19:08:08.667Z,18.76
2018-04-10T19:10:37.175Z,18.61
2018-04-10T19:13:05.608Z,18.56
2018-04-10T19:15:34.112Z,18.52
2018-04-10T19:18:02.698Z,18.23
2018-04-10T19:20:31.215Z,18.29
2018-04-10T19:22:59.610Z,18.28
2018-04-10T19:25:28.040Z,18.43
2018-04-10T19:27:56.445Z,18.07
2018-04-10T19:30:24.899Z,18.04
2018-04-10T19:32:53.351Z,17.94
2018-04-10T19:35:21.821Z,17.14
2018-04-10T19:37:50.200Z,17.30
2018-04-10T19:40:18.650Z,17.30
2018-04-10T19:42:47.075Z,17.45
2018-04-10T19:45:15.494Z,17.16
2018-04-10T19:47:43.926Z,17.45
2018-04-10T19:50:12.522Z,16.83
2018-04-10T19:52:41.079Z,16.65
2018-04-10T19:55:09.546Z,16.56
2018-04-10T19:57:37.960Z,16.65
2018-04-10T20:00:06.430Z,16.74
2018-04-10T20:02:34.858Z,17.00
2018-04-10T20:05:03.341Z,17.01
2018-04-10T20:07:31.746Z,17.03
2018-04-10T20:10:00.163Z,17.05
2018-04-10T20:12:28.591Z,16.95
2018-04-10T20:14:56.979Z,16.67
2018-04-10T20:17:25.424Z,16.93
2018-04-10T20:19:53.897Z,16.67
2018-04-10T20:22:22.383Z,16.89
2018-04-10T20:24:50.829Z,16.72
2018-04-10T20:27:19.248Z,16.68
2018-04-10T20:29:47.654Z,16.53
2018-04-10T20:32:16.057Z,16.61
2018-04-10T20:34:44.464Z,16.63
2018-04-10T20:37:12.842Z,16.68
2018-04-10T20:39:41.286Z,16.61
2018-04-10T20:42:09.682Z,16.67
2018-04-10T20:44:38.119Z,16.87
2018-04-10T20:47:06.622Z,16.69
2018-04-10T20:49:35.082Z,16.47
2018-04-10T20:52:03.510Z,16.37
2018-04-10T20:54:31.929Z,16.23
2018-04-10T20:57:00.336Z,15.81
2018-04-10T20:59:28.802Z,16.03
2018-04-10T21:01:57.186Z,15.91
2018-04-10T21:04:25.576Z,15.57
2018-04-10T21:06:54.003Z,16.02
2018-04-10T21:09:22.502Z,16.07
2018-04-10T21:11:50.943Z,15.64
2018-04-10T21:14:19.356Z,15.72
2018-04-10T21:16:47.769Z,16.08
2018-04-10T21:19:16.200Z,16.06
2018-04-10T21:21:44.702Z,15.99
2018-04-10T21:24:13.141Z,16.17
2018-04-10T21:26:41.595Z,16.15
2018-04-10T21:29:10.079Z,16.08
2018-04-10T21:31:38.553Z,16.04
2018-04-10T21:34:06.987Z,16.11
2018-04-10T21:36:35.438Z,15.95
2018-04-10T21:39:03.916Z,15.90
2018-04-10T21:41:32.334Z,15.92
2018-04-10T21:44:00.762Z,15.75
2018-04-10T21:46:29.156Z,15.51
2018-04-10T21:48:57.626Z,15.39
2018-04-10T21:51:26.013Z,15.54
2018-04-10T21:53:54.429Z,15.40
2018-04-10T21:56:22.852Z,15.56
2018-04-10T21:58:51.319Z,15.82
2018-04-10T22:01:19.931Z,15.74
2018-04-10T22:03:48.331Z,15.65
2018-04-10T22:06:16.863Z,15.72
2018-04-10T22:08:45.365Z,15.86
2018-04-10T22:11:13.775Z,15.71
2018-04-10T22:13:42.163Z,15.61
2018-04-10T22:16:10.603Z,15.79
2018-04-10T22:18:38.999Z,15.79
2018-04-10T22:21:07.400Z,15.65
2018-04-10T22:23:35.837Z,15.68
2018-04-10T22:26:04.249Z,15.80
2018-04-10T22:28:32.863Z,15.73
2018-04-10T22:31:01.293Z,15.31
2018-04-10T22:33:29.685Z,15.20
2018-04-10T22:35:58.366Z,15.14
2018-04-10T22:38:26.789Z,15.00
2018-04-10T22:40:55.167Z,15.19
2018-04-10T22:43:24.223Z,15.36
2018-04-10T22:45:52.639Z,15.37
2018-04-10T22:48:21.103Z,15.26
2018-04-10T22:50:49.846Z,15.00
2018-04-10T22:53:18.233Z,14.91
2018-04-10T22:55:46.635Z,15.06
2018-04-10T22:58:15.093Z,14.96
2018-04-10T23:00:49.091Z,14.54
2018-04-10T23:03:17.541Z,14.86
2018-04-10T23:05:45.993Z,14.73
2018-04-10T23:08:14.456Z,14.76
2018-04-10T23:10:42.930Z,14.77
2018-04-10T23:13:11.375Z,14.71
2018-04-10T23:15:39.830Z,14.78
2018-04-10T23:18:08.243Z,14.86
2018-04-10T23:20:36.692Z,14.53
2018-04-10T23:23:05.107Z,13.90
2018-04-10T23:25:33.643Z,13.87
2018-04-10T23:28:02.075Z,14.29
2018-04-10T23:30:30.491Z,14.18
2018-04-10T23:32:58.958Z,14.52
2018-04-10T23:35:27.385Z,14.69
2018-04-10T23:37:55.835Z,14.71
2018-04-10T23:40:24.240Z,14.59
2018-04-10T23:42:52.675Z,14.48
2018-04-10T23:45:21.088Z,14.48
2018-04-10T23:47:49.507Z,14.66
2018-04-10T23:50:17.892Z,14.80
2018-04-10T23:52:46.286Z,14.73
2018-04-10T23:55:14.679Z,14.74
2018-04-10T23:57:43.115Z,14.65
